Flight Track Log - Related Links

Times and Time Zones

All times are in EDT time to prevent confusion due to time zone crossing. See the ORK45 flight status page for this flight to view local times or setup timezone preferences in your user account.

Time Position Orientation Groundspeed Altitude Reporting Facility
EDT Latitude Longitude Course Direction KTS MPH feet Rate Location/Type
Wed 09:25:39 PM 53.8667 -122.6667 184° South 50 58 2,300  Level Vancouver Center
Wed 09:26:39 PM 53.8167 -122.6333 159° South 160 184 4,300 2,100 Climbing Vancouver Center
Wed 09:27:39 PM 53.7667 -122.6667 202° Southwest 160 184 6,500 2,250 Climbing Vancouver Center
Wed 09:28:39 PM 53.7333 -122.6667 180° South 170 196 8,800 1,950 Climbing Vancouver Center
Wed 09:29:39 PM 53.6833 -122.7000 202° Southwest 170 196 10,400 1,550 Climbing Vancouver Center
Wed 09:30:39 PM 53.6333 -122.7000 180° South 170 196 11,900 1,500 Climbing Vancouver Center
Wed 09:31:00 PM 53.4753 -122.7279 184° South  Level Estimated
Wed 09:31:39 PM 53.5833 -122.7000 180° South 180 207 13,400  Level Vancouver Center
Wed 09:32:39 PM 53.5333 -122.7333 202° Southwest 180 207 15,000 1,550 Climbing Vancouver Center
Wed 09:33:39 PM 53.4833 -122.7333 180° South 190 219 16,500 1,400 Climbing Vancouver Center
Wed 09:34:39 PM 53.4333 -122.7667 202° Southwest 200 230 17,800 900 Climbing Vancouver Center
Wed 09:35:39 PM 53.3667 -122.7833 188° South 210 242 18,300 750 Climbing Vancouver Center
Wed 09:36:39 PM 53.3167 -122.7833 180° South 210 242 19,300 950 Climbing Vancouver Center
Wed 09:37:39 PM 53.2500 -122.8000 189° South 220 253 20,200 900 Climbing Vancouver Center
Wed 09:38:39 PM 53.1833 -122.8167 189° South 220 253 21,100 400 Climbing Vancouver Center
Wed 09:39:39 PM 53.1167 -122.8500 197° South 240 276 21,000  Descending Vancouver Center
Wed 09:40:39 PM 53.0500 -122.8500 180° South 260 299 21,100 -50 Climbing Vancouver Center
Wed 09:41:39 PM 52.9833 -122.8833 197° South 270 311 20,900 -50 Descending Vancouver Center
Wed 09:42:39 PM 52.9000 -122.9167 194° South 270 311 21,000 50 Climbing Vancouver Center
Wed 09:43:39 PM 52.8333 -122.9333 189° South 280 322 21,000 -50 Level Vancouver Center
Wed 09:44:39 PM 52.7500 -122.9500 187° South 280 322 20,900  Descending Vancouver Center
Wed 09:45:39 PM 52.6667 -122.9667 187° South 280 322 21,000 50 Climbing Vancouver Center
Wed 09:46:39 PM 52.6000 -123.0000 197° South 280 322 21,000 50 Level Vancouver Center
Wed 09:47:39 PM 52.5167 -123.0000 180° South 280 322 21,100 50 Climbing Vancouver Center
Wed 09:48:39 PM 52.4500 -123.0333 197° South 280 322 21,100 -50 Level Vancouver Center
Wed 09:49:39 PM 52.3667 -123.0667 194° South 280 322 21,000 -100 Descending Vancouver Center
Wed 09:50:39 PM 52.2833 -123.0833 187° South 290 334 20,900 50 Descending Vancouver Center
Wed 09:51:39 PM 52.2167 -123.1167 197° South 280 322 21,100 50 Climbing Vancouver Center
Wed 09:52:39 PM 52.1333 -123.1167 180° South 280 322 21,000 -50 Descending Vancouver Center
Wed 09:53:39 PM 52.0500 -123.1500 194° South 280 322 21,000  Level Vancouver Center
Wed 09:54:39 PM 51.9833 -123.1667 189° South 280 322 21,000  Level Vancouver Center
Wed 09:55:39 PM 51.9000 -123.2000 194° South 280 322 21,000  Level Vancouver Center
Wed 09:56:39 PM 51.8333 -123.2333 197° South 280 322 21,000 50 Level Vancouver Center
Wed 09:57:39 PM 51.7500 -123.2667 194° South 280 322 21,100  Climbing Vancouver Center
Wed 09:58:39 PM 51.6667 -123.2667 180° South 280 322 21,000 -50 Descending Vancouver Center
Wed 09:59:39 PM 51.6000 -123.2833 189° South 290 334 21,000  Level Vancouver Center
Wed 10:00:39 PM 51.5167 -123.2833 180° South 280 322 21,000  Level Vancouver Center
Wed 10:01:39 PM 51.4333 -123.3167 194° South 280 322 21,000  Level Vancouver Center
Wed 10:02:39 PM 51.3667 -123.3167 180° South 280 322 21,000 -50 Level Vancouver Center
Wed 10:03:39 PM 51.2833 -123.3500 194° South 280 322 20,900  Descending Vancouver Center
Wed 10:04:39 PM 51.2000 -123.3667 187° South 280 322 21,000 100 Climbing Vancouver Center
Wed 10:05:39 PM 51.1167 -123.4000 194° South 280 322 21,100  Climbing Vancouver Center
Wed 10:06:39 PM 51.0500 -123.4333 197° South 280 322 21,000  Descending Vancouver Center
Wed 10:07:39 PM 50.9667 -123.4333 180° South 290 334 21,100 -50 Climbing Vancouver Center
Wed 10:08:39 PM 50.8833 -123.4500 187° South 290 334 20,900 -50 Descending Vancouver Center
Wed 10:09:39 PM 50.8167 -123.4833 198° South 290 334 21,000 100 Climbing Vancouver Center
Wed 10:10:39 PM 50.7333 -123.5000 187° South 280 322 21,100 -150 Climbing Vancouver Center
Wed 10:11:39 PM 50.6500 -123.5167 187° South 280 322 20,700 -600 Descending Vancouver Center
Wed 10:12:39 PM 50.5667 -123.5333 187° South 300 345 19,900 -950 Descending Vancouver Center
Wed 10:13:39 PM 50.4833 -123.5667 194° South 310 357 18,800 -900 Descending Vancouver Center
Wed 10:14:39 PM 50.4000 -123.5833 187° South 310 357 18,100 -900 Descending Vancouver Center
Wed 10:15:39 PM 50.3167 -123.6167 194° South 320 368 17,000 -1,200 Descending Vancouver Center
Wed 10:16:39 PM 50.2167 -123.6167 180° South 320 368 15,700 -1,250 Descending Vancouver Center
Wed 10:17:39 PM 50.1333 -123.6500 194° South 320 368 14,500 -1,050 Descending Vancouver Center
Wed 10:18:39 PM 50.0500 -123.6667 187° South 310 357 13,600 -900 Descending Vancouver Center
Wed 10:19:39 PM 49.9667 -123.7000 194° South 300 345 12,700 -800 Descending Vancouver Center
Wed 10:20:39 PM 49.9000 -123.7167 189° South 290 334 12,000 -800 Descending Vancouver Center
Wed 10:21:39 PM 49.8167 -123.7167 180° South 280 322 11,100 -900 Descending Vancouver Center
Wed 10:22:39 PM 49.7333 -123.7000 173° South 280 322 10,200 -500 Descending Vancouver Center
Wed 10:23:39 PM 49.6667 -123.6167 141° Southeast 280 322 10,100 -50 Descending Vancouver Center
Wed 10:24:39 PM 49.6000 -123.6000 171° South 280 322 10,100 -50 Level Vancouver Center
Wed 10:25:39 PM 49.5333 -123.5500 154° Southeast 280 322 10,000 -50 Descending Vancouver Center
Wed 10:26:39 PM 49.4667 -123.4667 141° Southeast 290 334 10,000  Level Vancouver Center
Wed 10:27:39 PM 49.4000 -123.4167 154° Southeast 290 334 10,000 50 Level Vancouver Center
Wed 10:28:39 PM 49.3167 -123.3667 159° South 290 334 10,100  Climbing Vancouver Center
Wed 10:29:39 PM 49.2833 -123.2667 117° Southeast 300 345 10,000 -1,200 Descending Vancouver Center
Wed 10:30:39 PM 49.2667 -123.1333 101° East 300 345 7,700 -2,350 Descending Vancouver Center
Wed 10:31:39 PM 49.2500 -123.0000 101° East 280 322 5,300 -1,650 Descending Vancouver Center
Wed 10:32:39 PM 49.2000 -123.0667 221° Southwest 210 242 4,400 -1,750 Descending Vancouver Center
Wed 10:33:39 PM 49.1833 -123.1167 243° Southwest 160 184 1,800 -2,600 Descending Vancouver Center

Login

Don't have an account? Register now (free) for customized features, flight alerts, and more!